createdAt,value
2019-01-31T00:01:56.226Z,21.92
2019-01-31T00:04:22.616Z,21.91
2019-01-31T00:06:48.971Z,21.91
2019-01-31T00:09:15.318Z,21.92
2019-01-31T00:11:41.710Z,21.91
2019-01-31T00:14:08.040Z,21.91
2019-01-31T00:16:34.383Z,21.87
2019-01-31T00:19:00.715Z,21.89
2019-01-31T00:21:27.042Z,21.88
2019-01-31T00:23:53.431Z,21.89
2019-01-31T00:26:19.760Z,21.90
2019-01-31T00:28:46.116Z,21.88
2019-01-31T00:31:12.464Z,21.87
2019-01-31T00:33:38.805Z,21.85
2019-01-31T00:36:05.130Z,21.85
2019-01-31T00:38:31.521Z,21.86
2019-01-31T00:40:57.810Z,21.82
2019-01-31T00:43:24.231Z,21.82
2019-01-31T00:45:50.608Z,21.81
2019-01-31T00:48:16.881Z,21.79
2019-01-31T00:50:43.212Z,21.79
2019-01-31T00:53:09.586Z,21.77
2019-01-31T00:55:35.918Z,21.78
2019-01-31T00:58:02.346Z,21.77
2019-01-31T01:00:28.596Z,21.76
2019-01-31T01:02:54.931Z,21.73
2019-01-31T01:05:21.298Z,21.81
2019-01-31T01:07:47.630Z,21.87
2019-01-31T01:10:14.003Z,21.77
2019-01-31T01:12:40.361Z,21.70
2019-01-31T01:15:06.699Z,21.74
2019-01-31T01:17:33.074Z,21.77
2019-01-31T01:19:59.448Z,21.80
2019-01-31T01:22:25.784Z,21.77
2019-01-31T01:24:52.317Z,21.75
2019-01-31T01:27:18.654Z,21.84
2019-01-31T01:29:44.988Z,21.92
2019-01-31T01:32:11.311Z,21.89
2019-01-31T01:34:37.649Z,21.88
2019-01-31T01:37:04.027Z,21.91
2019-01-31T01:39:30.389Z,21.88
2019-01-31T01:41:56.717Z,21.92
2019-01-31T01:44:23.011Z,21.88
2019-01-31T01:46:49.340Z,21.87
2019-01-31T01:49:15.675Z,21.91
2019-01-31T01:51:42.012Z,21.94
2019-01-31T01:54:08.435Z,21.94
2019-01-31T01:56:34.832Z,21.93
2019-01-31T01:59:01.177Z,21.97
2019-01-31T02:01:27.507Z,21.91
2019-01-31T02:03:53.845Z,22.02
2019-01-31T02:06:20.212Z,21.97
2019-01-31T02:08:46.544Z,21.91
2019-01-31T02:11:13.048Z,22.07
2019-01-31T02:13:39.266Z,22.11
2019-01-31T02:16:05.621Z,22.06
2019-01-31T02:18:31.965Z,22.05
2019-01-31T02:20:58.410Z,22.15
2019-01-31T02:23:24.619Z,22.19
2019-01-31T02:25:50.951Z,22.21
2019-01-31T02:28:17.299Z,22.24
2019-01-31T02:30:43.623Z,22.28
2019-01-31T02:33:09.954Z,22.32
2019-01-31T02:35:36.330Z,22.32
2019-01-31T02:38:02.670Z,22.34
2019-01-31T02:40:29.038Z,22.37
2019-01-31T02:42:55.423Z,22.38
2019-01-31T02:45:21.744Z,22.41
2019-01-31T02:47:48.073Z,22.41
2019-01-31T02:50:14.414Z,22.42
2019-01-31T02:52:40.749Z,22.45
2019-01-31T02:55:07.123Z,22.44
2019-01-31T02:57:33.466Z,22.44
2019-01-31T02:59:59.789Z,22.46
2019-01-31T03:02:26.159Z,22.49
2019-01-31T03:04:52.505Z,22.48
2019-01-31T03:07:18.833Z,22.48
2019-01-31T03:09:54.545Z,22.48
2019-01-31T03:12:11.558Z,22.50
2019-01-31T03:14:37.879Z,22.50
2019-01-31T03:17:04.213Z,22.50
2019-01-31T03:19:30.560Z,22.56
2019-01-31T03:21:56.917Z,22.50
2019-01-31T03:24:23.277Z,22.56
2019-01-31T03:26:49.620Z,22.55
2019-01-31T03:29:15.965Z,22.57
2019-01-31T03:31:42.328Z,22.58
2019-01-31T03:34:08.654Z,22.57
2019-01-31T03:36:35.000Z,22.58
2019-01-31T03:39:01.348Z,22.62
2019-01-31T03:41:27.676Z,22.60
2019-01-31T03:43:54.032Z,22.64
2019-01-31T03:46:20.365Z,22.62
2019-01-31T03:48:46.696Z,22.64
2019-01-31T03:51:13.107Z,22.64
2019-01-31T03:53:39.565Z,22.62
2019-01-31T03:56:05.777Z,22.71
2019-01-31T03:58:32.115Z,22.74
2019-01-31T04:00:58.446Z,22.78
2019-01-31T04:03:24.834Z,22.80
2019-01-31T04:05:51.170Z,22.83
2019-01-31T04:08:17.546Z,22.90
2019-01-31T04:10:43.875Z,22.91
2019-01-31T04:13:10.263Z,22.95
2019-01-31T04:15:36.525Z,22.98
2019-01-31T04:18:02.863Z,23.03
2019-01-31T04:20:29.199Z,22.99
2019-01-31T04:22:55.539Z,23.06
2019-01-31T04:25:21.859Z,23.08
2019-01-31T04:27:48.209Z,23.11
2019-01-31T04:30:14.539Z,23.17
2019-01-31T04:32:40.871Z,23.20
2019-01-31T04:35:07.227Z,23.23
2019-01-31T04:37:33.576Z,23.24
2019-01-31T04:39:59.907Z,23.25
2019-01-31T04:42:26.241Z,23.28
2019-01-31T04:44:52.577Z,23.28
2019-01-31T04:47:18.910Z,23.29
2019-01-31T04:49:45.252Z,23.28
2019-01-31T04:52:11.630Z,23.29
2019-01-31T04:54:37.958Z,23.30
2019-01-31T04:57:04.348Z,23.36
2019-01-31T04:59:30.665Z,23.36
2019-01-31T05:01:57.022Z,23.37
2019-01-31T05:04:23.362Z,23.35
2019-01-31T05:06:49.705Z,23.43
2019-01-31T05:09:16.057Z,23.44
2019-01-31T05:11:42.396Z,23.46
2019-01-31T05:14:08.722Z,23.51
2019-01-31T05:16:35.073Z,23.39
2019-01-31T05:19:01.427Z,23.42
2019-01-31T05:21:27.774Z,23.49
2019-01-31T05:23:54.146Z,23.51
2019-01-31T05:26:20.516Z,23.52
2019-01-31T05:28:46.881Z,23.41
2019-01-31T05:31:13.242Z,23.45
2019-01-31T05:33:39.588Z,23.52
2019-01-31T05:36:06.008Z,23.56
2019-01-31T05:38:32.341Z,23.57
2019-01-31T05:40:58.681Z,23.55
2019-01-31T05:43:25.027Z,23.58
2019-01-31T05:45:51.357Z,23.59
2019-01-31T05:48:17.769Z,23.63
2019-01-31T05:50:44.105Z,23.64
2019-01-31T05:53:10.474Z,23.63
2019-01-31T05:55:36.796Z,23.72
2019-01-31T05:58:03.201Z,23.64
2019-01-31T06:00:29.532Z,23.65
2019-01-31T06:02:55.877Z,23.66
2019-01-31T06:05:22.256Z,23.71
2019-01-31T06:07:48.577Z,23.58
2019-01-31T06:10:14.926Z,23.64
2019-01-31T06:12:41.293Z,23.70
2019-01-31T06:15:07.624Z,23.66
2019-01-31T06:17:36.003Z,23.63
2019-01-31T06:20:02.376Z,23.65
2019-01-31T06:22:28.730Z,23.66
2019-01-31T06:24:55.060Z,23.82
2019-01-31T06:27:21.495Z,23.86
2019-01-31T06:29:47.810Z,23.87
2019-01-31T06:32:14.120Z,23.88
2019-01-31T06:34:40.488Z,23.84
2019-01-31T06:37:06.939Z,23.81
2019-01-31T06:39:33.318Z,23.82
2019-01-31T06:41:59.834Z,23.85
2019-01-31T06:44:26.216Z,23.97
2019-01-31T06:46:52.546Z,24.01
2019-01-31T06:49:18.901Z,24.02
2019-01-31T06:51:45.270Z,24.05
2019-01-31T06:54:11.642Z,24.08
2019-01-31T06:56:38.019Z,24.13
2019-01-31T06:59:04.373Z,24.16
2019-01-31T07:01:30.862Z,24.18
2019-01-31T07:03:57.268Z,24.15
2019-01-31T07:06:23.724Z,24.20
2019-01-31T07:08:50.441Z,24.32
2019-01-31T07:11:16.904Z,24.20
2019-01-31T07:13:43.326Z,24.41
2019-01-31T07:16:09.673Z,24.47
2019-01-31T07:18:42.853Z,24.52
2019-01-31T07:21:11.943Z,24.36
2019-01-31T07:23:38.283Z,24.58
2019-01-31T07:26:04.663Z,24.62
2019-01-31T07:28:31.152Z,24.67
2019-01-31T07:30:58.025Z,24.74
2019-01-31T07:33:24.431Z,24.72
2019-01-31T07:35:52.172Z,24.55
2019-01-31T07:38:17.151Z,24.65
2019-01-31T07:40:43.501Z,24.72
2019-01-31T07:43:09.912Z,24.75
2019-01-31T07:45:36.388Z,24.82
2019-01-31T07:48:02.860Z,24.98
2019-01-31T07:50:30.487Z,24.92
2019-01-31T07:52:57.011Z,24.94
2019-01-31T07:55:23.246Z,24.86
2019-01-31T07:57:49.893Z,25.01
2019-01-31T08:00:16.212Z,25.11
2019-01-31T08:02:42.672Z,25.07
2019-01-31T08:05:09.020Z,25.10
2019-01-31T08:07:35.394Z,25.17
2019-01-31T08:10:01.738Z,25.14
2019-01-31T08:12:28.148Z,25.17
2019-01-31T08:14:54.730Z,25.19
2019-01-31T08:17:21.052Z,25.09
2019-01-31T08:19:47.578Z,25.26
2019-01-31T08:22:13.926Z,25.16
2019-01-31T08:24:40.465Z,25.18
2019-01-31T08:27:06.798Z,25.21
2019-01-31T08:29:35.563Z,25.17
2019-01-31T08:32:01.925Z,25.04
2019-01-31T08:34:29.642Z,25.07
2019-01-31T08:36:54.988Z,25.17
2019-01-31T08:39:21.307Z,25.22
2019-01-31T08:41:48.152Z,25.23
2019-01-31T08:44:14.562Z,25.25
2019-01-31T08:46:40.981Z,25.26
2019-01-31T08:49:07.436Z,25.21
2019-01-31T08:51:33.763Z,25.22
2019-01-31T08:54:00.428Z,25.27
2019-01-31T08:56:26.850Z,25.21
2019-01-31T08:58:53.815Z,25.31
2019-01-31T09:01:20.400Z,25.27
2019-01-31T09:03:46.888Z,25.30
2019-01-31T09:06:15.062Z,25.26
2019-01-31T09:08:39.793Z,25.39
2019-01-31T09:11:06.045Z,25.22
2019-01-31T09:13:32.528Z,25.29
2019-01-31T09:15:59.382Z,25.34
2019-01-31T09:18:25.753Z,25.38
2019-01-31T09:20:52.090Z,25.38
2019-01-31T09:23:18.499Z,25.26
2019-01-31T09:25:44.863Z,25.21
2019-01-31T09:28:11.205Z,25.25
2019-01-31T09:30:37.599Z,25.25
2019-01-31T09:33:04.012Z,25.22
2019-01-31T09:35:30.366Z,25.03
2019-01-31T09:37:56.940Z,25.16
2019-01-31T09:40:23.176Z,25.20
2019-01-31T09:42:49.561Z,25.15
2019-01-31T09:45:15.891Z,25.25
2019-01-31T09:47:42.225Z,25.27
2019-01-31T09:50:08.603Z,25.23
2019-01-31T09:52:34.980Z,25.20
2019-01-31T09:55:01.314Z,25.12
2019-01-31T09:57:27.774Z,25.24
2019-01-31T09:59:54.119Z,25.19
2019-01-31T10:02:20.457Z,25.10
2019-01-31T10:04:46.793Z,25.20
2019-01-31T10:07:13.175Z,25.15
2019-01-31T10:09:39.631Z,25.15
2019-01-31T10:12:05.988Z,25.20
2019-01-31T10:14:32.385Z,25.19
2019-01-31T10:16:58.725Z,25.13
2019-01-31T10:19:25.188Z,25.17
2019-01-31T10:21:51.436Z,25.14
2019-01-31T10:24:17.835Z,24.96
2019-01-31T10:26:44.173Z,25.06
2019-01-31T10:29:10.686Z,25.12
2019-01-31T10:31:37.031Z,25.14
2019-01-31T10:34:03.436Z,25.21
2019-01-31T10:36:29.772Z,25.10
2019-01-31T10:38:56.180Z,25.19
2019-01-31T10:41:22.554Z,25.20
2019-01-31T10:43:48.953Z,25.24
2019-01-31T10:46:15.327Z,25.18
2019-01-31T10:48:41.659Z,25.17
2019-01-31T10:51:08.180Z,25.19
2019-01-31T10:53:34.575Z,25.23
2019-01-31T10:56:00.928Z,25.21
2019-01-31T10:58:27.275Z,25.24
2019-01-31T11:00:53.631Z,25.29
2019-01-31T11:03:20.036Z,25.23
2019-01-31T11:05:46.373Z,25.24
2019-01-31T11:08:12.816Z,25.31
2019-01-31T11:10:39.169Z,25.21
2019-01-31T11:13:05.607Z,25.21
2019-01-31T11:15:31.966Z,25.15
2019-01-31T11:17:58.328Z,25.23
2019-01-31T11:20:24.765Z,25.23
2019-01-31T11:22:51.098Z,25.30
2019-01-31T11:25:17.625Z,25.19
2019-01-31T11:27:43.973Z,25.17
2019-01-31T11:30:10.499Z,25.24
2019-01-31T11:32:38.602Z,25.24
2019-01-31T11:35:03.456Z,25.19
2019-01-31T11:37:29.889Z,25.24
2019-01-31T11:39:56.245Z,25.19
2019-01-31T11:42:22.663Z,25.32
2019-01-31T11:44:49.088Z,25.40
2019-01-31T11:47:15.457Z,25.37
2019-01-31T11:49:41.859Z,25.31
2019-01-31T11:52:08.403Z,25.24
2019-01-31T11:54:34.779Z,25.40
2019-01-31T11:57:05.591Z,25.34
2019-01-31T11:59:27.527Z,25.40
2019-01-31T12:01:54.306Z,25.37
2019-01-31T12:04:20.707Z,25.38
2019-01-31T12:06:47.063Z,25.50
2019-01-31T12:09:13.635Z,25.42
2019-01-31T12:11:40.961Z,25.35
2019-01-31T12:14:07.342Z,25.44
2019-01-31T12:16:33.725Z,25.34
2019-01-31T12:19:00.072Z,25.32
2019-01-31T12:21:26.521Z,25.47
2019-01-31T12:23:52.942Z,25.38
2019-01-31T12:26:19.428Z,25.36
2019-01-31T12:28:45.815Z,25.30
2019-01-31T12:31:12.183Z,25.33
2019-01-31T12:33:38.569Z,25.34
2019-01-31T12:36:05.011Z,25.46
2019-01-31T12:38:36.805Z,25.39
2019-01-31T12:40:58.867Z,25.28
2019-01-31T12:43:34.635Z,25.32
2019-01-31T12:45:51.677Z,25.43
2019-01-31T12:48:18.109Z,25.37
2019-01-31T12:50:44.528Z,25.33
2019-01-31T12:53:10.909Z,25.30
2019-01-31T12:55:37.370Z,25.28
2019-01-31T12:58:03.836Z,25.30
2019-01-31T13:00:30.189Z,25.44
2019-01-31T13:02:56.561Z,25.34
2019-01-31T13:05:22.919Z,25.28
2019-01-31T13:07:49.349Z,25.36
2019-01-31T13:10:15.692Z,25.48
2019-01-31T13:12:48.814Z,25.28
2019-01-31T13:15:09.469Z,25.27
2019-01-31T13:17:38.109Z,25.26
2019-01-31T13:20:04.393Z,25.24
2019-01-31T13:22:30.749Z,25.20
2019-01-31T13:24:57.110Z,25.18
2019-01-31T13:27:23.471Z,25.13
2019-01-31T13:29:49.825Z,25.19
2019-01-31T13:32:16.234Z,25.08
2019-01-31T13:34:42.676Z,25.22
2019-01-31T13:37:09.073Z,25.18
2019-01-31T13:39:35.427Z,25.14
2019-01-31T13:42:01.778Z,25.19
2019-01-31T13:44:28.182Z,25.19
2019-01-31T13:46:54.535Z,25.11
2019-01-31T13:49:20.916Z,25.15
2019-01-31T13:51:47.306Z,25.11
2019-01-31T13:54:13.650Z,25.07
2019-01-31T13:56:45.708Z,25.17
2019-01-31T13:59:06.450Z,25.15
2019-01-31T14:01:32.807Z,25.23
2019-01-31T14:03:59.364Z,25.14
2019-01-31T14:06:25.843Z,25.16
2019-01-31T14:08:52.327Z,25.12
2019-01-31T14:11:20.871Z,25.07
2019-01-31T14:13:47.332Z,25.15
2019-01-31T14:16:13.720Z,25.14
2019-01-31T14:18:42.180Z,25.14
2019-01-31T14:21:08.579Z,25.13
2019-01-31T14:23:35.021Z,25.25
2019-01-31T14:26:01.412Z,25.06
2019-01-31T14:28:27.989Z,25.17
2019-01-31T14:30:54.627Z,25.23
2019-01-31T14:33:20.913Z,25.15
2019-01-31T14:35:47.235Z,25.22
2019-01-31T14:38:13.626Z,25.11
2019-01-31T14:40:39.982Z,25.13
2019-01-31T14:43:06.364Z,25.18
2019-01-31T14:45:32.729Z,25.15
2019-01-31T14:47:59.106Z,25.12
2019-01-31T14:50:25.478Z,25.13
2019-01-31T14:52:51.840Z,25.11
2019-01-31T14:55:18.292Z,25.07
2019-01-31T14:57:44.651Z,25.26
2019-01-31T15:00:10.982Z,25.23
2019-01-31T15:02:37.334Z,25.15
2019-01-31T15:05:03.671Z,25.20
2019-01-31T15:07:30.149Z,25.20
2019-01-31T15:09:56.498Z,25.21
2019-01-31T15:12:22.828Z,25.26
2019-01-31T15:14:49.286Z,25.10
2019-01-31T15:17:15.605Z,25.03
2019-01-31T15:19:41.934Z,25.07
2019-01-31T15:22:08.270Z,25.15
2019-01-31T15:24:34.601Z,25.25
2019-01-31T15:27:01.004Z,25.26
2019-01-31T15:29:27.375Z,25.28
2019-01-31T15:31:56.182Z,25.31
2019-01-31T15:34:22.645Z,25.24
2019-01-31T15:36:49.044Z,25.21
2019-01-31T15:39:15.297Z,25.29
2019-01-31T15:41:41.682Z,25.19
2019-01-31T15:44:08.019Z,25.22
2019-01-31T15:46:34.420Z,25.21
2019-01-31T15:49:00.880Z,25.25
2019-01-31T15:51:27.307Z,25.23
2019-01-31T15:53:55.534Z,25.21
2019-01-31T15:56:21.878Z,25.23
2019-01-31T15:58:48.208Z,25.20
2019-01-31T16:01:14.551Z,25.22
2019-01-31T16:03:41.036Z,25.16
2019-01-31T16:06:07.389Z,25.12
2019-01-31T16:08:33.741Z,25.11
2019-01-31T16:11:00.117Z,25.16
2019-01-31T16:13:26.445Z,25.14
2019-01-31T16:15:56.061Z,25.09
2019-01-31T16:18:22.370Z,25.13
2019-01-31T16:20:48.745Z,25.16
2019-01-31T16:23:15.087Z,25.08
2019-01-31T16:25:41.571Z,25.04
2019-01-31T16:28:08.013Z,25.05
2019-01-31T16:30:34.488Z,24.97
2019-01-31T16:33:00.737Z,24.98
2019-01-31T16:35:27.072Z,24.94
2019-01-31T16:37:53.429Z,24.90
2019-01-31T16:40:19.771Z,24.89
2019-01-31T16:42:46.162Z,24.92
2019-01-31T16:45:12.521Z,24.96
2019-01-31T16:47:38.928Z,24.86
2019-01-31T16:50:05.387Z,24.87
2019-01-31T16:52:31.750Z,24.87
2019-01-31T16:54:58.107Z,24.88
2019-01-31T16:57:24.492Z,24.78
2019-01-31T16:59:50.848Z,24.76
2019-01-31T17:02:17.210Z,24.82
2019-01-31T17:04:43.553Z,24.72
2019-01-31T17:07:09.960Z,24.68
2019-01-31T17:09:39.392Z,24.62
2019-01-31T17:12:04.696Z,24.65
2019-01-31T17:14:31.035Z,24.67
2019-01-31T17:16:57.404Z,24.62
2019-01-31T17:19:23.870Z,24.49
2019-01-31T17:21:50.218Z,24.58
2019-01-31T17:24:16.665Z,24.41
2019-01-31T17:26:43.009Z,24.51
2019-01-31T17:29:09.396Z,24.54
2019-01-31T17:31:35.735Z,24.45
2019-01-31T17:34:02.076Z,24.54
2019-01-31T17:36:28.536Z,24.35
2019-01-31T17:38:54.907Z,24.47
2019-01-31T17:41:21.349Z,24.42
2019-01-31T17:43:48.282Z,24.45
2019-01-31T17:46:13.972Z,24.35
2019-01-31T17:48:40.384Z,24.37
2019-01-31T17:51:06.721Z,24.29
2019-01-31T17:53:33.045Z,24.37
2019-01-31T17:55:59.394Z,24.31
2019-01-31T17:58:25.715Z,24.27
2019-01-31T18:00:52.046Z,24.29
2019-01-31T18:03:18.416Z,24.23
2019-01-31T18:05:44.798Z,24.30
2019-01-31T18:08:11.125Z,24.28
2019-01-31T18:10:37.534Z,24.30
2019-01-31T18:13:05.611Z,24.28
2019-01-31T18:15:41.177Z,24.28
2019-01-31T18:17:56.568Z,24.23
2019-01-31T18:20:22.964Z,24.22
2019-01-31T18:22:49.314Z,24.23
2019-01-31T18:25:15.645Z,24.13
2019-01-31T18:27:41.978Z,24.19
2019-01-31T18:30:08.306Z,24.17
2019-01-31T18:32:34.682Z,24.17
2019-01-31T18:35:01.040Z,24.13
2019-01-31T18:37:27.433Z,24.12
2019-01-31T18:39:53.732Z,24.12
2019-01-31T18:42:20.138Z,24.09
2019-01-31T18:44:46.449Z,24.07
2019-01-31T18:47:12.791Z,24.07
2019-01-31T18:49:39.145Z,24.04
2019-01-31T18:52:05.495Z,24.05
2019-01-31T18:54:31.860Z,24.02
2019-01-31T18:56:58.203Z,24.01
2019-01-31T18:59:24.538Z,24.01
2019-01-31T19:01:50.909Z,23.96
2019-01-31T19:04:17.263Z,23.94
2019-01-31T19:06:43.614Z,23.96
2019-01-31T19:09:09.983Z,23.95
2019-01-31T19:11:36.359Z,23.94
2019-01-31T19:14:02.691Z,23.92
2019-01-31T19:16:29.013Z,23.90
2019-01-31T19:18:55.352Z,23.89
2019-01-31T19:21:21.699Z,23.80
2019-01-31T19:23:48.043Z,23.86
2019-01-31T19:26:14.432Z,23.82
2019-01-31T19:28:40.772Z,23.82
2019-01-31T19:31:07.099Z,23.80
2019-01-31T19:33:33.438Z,23.78
2019-01-31T19:35:59.811Z,23.78
2019-01-31T19:38:26.211Z,23.78
2019-01-31T19:40:52.539Z,23.78
2019-01-31T19:43:18.912Z,23.74
2019-01-31T19:45:45.297Z,23.74
2019-01-31T19:48:11.647Z,23.73
2019-01-31T19:50:38.033Z,23.70
2019-01-31T19:53:04.409Z,23.71
2019-01-31T19:55:30.739Z,23.70
2019-01-31T19:57:57.178Z,23.70
2019-01-31T20:00:23.456Z,23.65
2019-01-31T20:02:49.794Z,23.66
2019-01-31T20:05:16.135Z,23.65
2019-01-31T20:07:42.564Z,23.62
2019-01-31T20:10:08.912Z,23.63
2019-01-31T20:12:35.290Z,23.61
2019-01-31T20:15:01.574Z,23.59
2019-01-31T20:17:27.928Z,23.58
2019-01-31T20:19:54.267Z,23.57
2019-01-31T20:22:20.624Z,23.57
2019-01-31T20:24:46.956Z,23.55
2019-01-31T20:27:13.322Z,23.56
2019-01-31T20:29:39.654Z,23.55
2019-01-31T20:32:06.002Z,23.51
2019-01-31T20:34:32.327Z,23.52
2019-01-31T20:36:58.657Z,23.49
2019-01-31T20:39:25.032Z,23.50
2019-01-31T20:41:54.463Z,23.51
2019-01-31T20:44:17.726Z,23.47
2019-01-31T20:46:44.109Z,23.42
2019-01-31T20:49:10.457Z,23.43
2019-01-31T20:51:36.779Z,23.42
2019-01-31T20:54:03.185Z,23.42
2019-01-31T20:56:29.550Z,23.42
2019-01-31T20:58:55.924Z,23.37
2019-01-31T21:01:22.272Z,23.36
2019-01-31T21:03:49.676Z,23.36
2019-01-31T21:06:15.063Z,23.37
2019-01-31T21:08:41.388Z,23.38
2019-01-31T21:11:07.803Z,23.37
2019-01-31T21:13:34.090Z,23.35
2019-01-31T21:16:00.533Z,23.33
2019-01-31T21:18:26.881Z,23.33
2019-01-31T21:20:53.265Z,23.30
2019-01-31T21:23:19.621Z,23.29
2019-01-31T21:25:45.979Z,23.31
2019-01-31T21:28:12.422Z,23.28
2019-01-31T21:30:38.808Z,23.28
2019-01-31T21:33:05.146Z,23.25
2019-01-31T21:35:31.479Z,23.27
2019-01-31T21:37:57.826Z,23.25
2019-01-31T21:40:24.165Z,23.25
2019-01-31T21:42:50.573Z,23.22
2019-01-31T21:45:16.902Z,23.21
2019-01-31T21:47:43.222Z,23.23
2019-01-31T21:50:09.590Z,23.24
2019-01-31T21:52:35.927Z,23.22
2019-01-31T21:55:02.304Z,23.17
2019-01-31T21:57:28.761Z,23.10
2019-01-31T21:59:55.022Z,23.03
2019-01-31T22:02:21.344Z,22.97
2019-01-31T22:04:47.669Z,22.94
2019-01-31T22:07:14.013Z,22.88
2019-01-31T22:09:40.364Z,22.85
2019-01-31T22:12:06.759Z,22.81
2019-01-31T22:14:33.057Z,22.71
2019-01-31T22:16:59.384Z,22.67
2019-01-31T22:19:25.714Z,22.68
2019-01-31T22:21:52.056Z,22.65
2019-01-31T22:24:18.524Z,22.60
2019-01-31T22:26:44.923Z,22.59
2019-01-31T22:29:11.295Z,22.50
2019-01-31T22:31:37.657Z,22.48
2019-01-31T22:34:04.007Z,22.42
2019-01-31T22:36:30.338Z,22.42
2019-01-31T22:38:56.675Z,22.39
2019-01-31T22:41:23.046Z,22.39
2019-01-31T22:43:50.530Z,22.36
2019-01-31T22:46:15.720Z,22.31
2019-01-31T22:48:42.023Z,22.29
2019-01-31T22:51:08.426Z,22.24
2019-01-31T22:53:34.722Z,22.26
2019-01-31T22:56:01.084Z,22.22
2019-01-31T22:58:27.414Z,22.23
2019-01-31T23:00:53.733Z,22.18
2019-01-31T23:03:20.075Z,22.11
2019-01-31T23:05:46.403Z,22.10
2019-01-31T23:08:12.803Z,22.10
2019-01-31T23:10:39.140Z,22.15
2019-01-31T23:13:05.468Z,22.11
2019-01-31T23:15:31.802Z,22.07
2019-01-31T23:17:58.134Z,22.06
2019-01-31T23:20:24.495Z,22.06
2019-01-31T23:22:50.869Z,22.05
2019-01-31T23:25:17.159Z,22.03
2019-01-31T23:27:43.503Z,22.00
2019-01-31T23:30:09.832Z,21.98
2019-01-31T23:32:36.168Z,21.96
2019-01-31T23:35:02.508Z,21.87
2019-01-31T23:37:28.932Z,21.94
2019-01-31T23:39:55.260Z,21.90
2019-01-31T23:42:21.603Z,21.91
2019-01-31T23:44:47.933Z,21.89
2019-01-31T23:47:14.305Z,21.85
2019-01-31T23:49:40.637Z,21.85
2019-01-31T23:52:06.968Z,21.81
2019-01-31T23:54:33.314Z,21.81
2019-01-31T23:56:59.649Z,21.82
2019-01-31T23:59:25.979Z,21.81
